Time,TemperatureF,DewpointF,PressureIn,WindDirection,WindDirectionDegrees,WindSpeedMPH,WindSpeedGustMPH,Humidity,HourlyPrecipIn,Conditions,Clouds,dailyrainin,SoftwareType,DateUTC
2013-12-17 00:12:00,29.4,28.0,30.14,West,268,0.0,0.0,93,0.00,,,0.00,weatherlink.com 1.10,2013-12-17 05:12:00,
2013-12-17 00:27:00,29.0,28.0,30.13,West,268,0.0,0.0,94,0.00,,,0.00,weatherlink.com 1.10,2013-12-17 05:27:00,
2013-12-17 00:42:00,28.9,27.0,30.13,West,268,0.0,0.0,94,0.00,,,0.00,weatherlink.com 1.10,2013-12-17 05:42:00,
2013-12-17 00:57:00,28.4,27.0,30.12,West,268,0.0,0.0,93,0.00,,,0.00,weatherlink.com 1.10,2013-12-17 05:57:00,
2013-12-17 01:12:00,28.4,27.0,30.12,West,268,0.0,0.0,94,0.00,,,0.00,weatherlink.com 1.10,2013-12-17 06:12:00,
2013-12-17 01:27:00,27.9,26.0,30.12,West,268,0.0,0.0,94,0.00,,,0.00,weatherlink.com 1.10,2013-12-17 06:27:00,
2013-12-17 01:42:00,28.0,27.0,30.12,West,268,0.0,2.0,94,0.00,,,0.00,weatherlink.com 1.10,2013-12-17 06:42:00,
2013-12-17 01:57:00,28.0,27.0,30.13,West,268,0.0,1.0,94,0.00,,,0.00,weatherlink.com 1.10,2013-12-17 06:57:00,
2013-12-17 02:12:00,27.9,26.0,30.14,West,268,0.0,0.0,94,0.00,,,0.00,weatherlink.com 1.10,2013-12-17 07:12:00,
2013-12-17 02:27:00,27.5,26.0,30.14,West,268,0.0,0.0,94,0.00,,,0.00,weatherlink.com 1.10,2013-12-17 07:27:00,
2013-12-17 02:42:00,27.2,26.0,30.14,West,268,0.0,0.0,94,0.00,,,0.00,weatherlink.com 1.10,2013-12-17 07:42:00,
2013-12-17 02:58:00,27.4,26.0,30.14,West,268,0.0,0.0,94,0.00,,,0.00,weatherlink.com 1.10,2013-12-17 07:58:00,
2013-12-17 03:13:00,27.4,26.0,30.14,West,268,0.0,0.0,94,0.00,,,0.00,weatherlink.com 1.10,2013-12-17 08:13:00,
2013-12-17 03:28:00,27.2,26.0,30.14,West,268,0.0,0.0,94,0.00,,,0.00,weatherlink.com 1.10,2013-12-17 08:28:00,
2013-12-17 03:43:00,26.9,25.0,30.14,West,268,0.0,0.0,94,0.00,,,0.00,weatherlink.com 1.10,2013-12-17 08:43:00,
2013-12-17 03:58:00,27.2,26.0,30.13,West,268,0.0,0.0,94,0.00,,,0.00,weatherlink.com 1.10,2013-12-17 08:58:00,
2013-12-17 04:13:00,26.8,25.0,30.13,West,268,0.0,0.0,94,0.00,,,0.00,weatherlink.com 1.10,2013-12-17 09:13:00,
2013-12-17 04:28:00,26.8,25.0,30.12,West,268,0.0,0.0,94,0.00,,,0.00,weatherlink.com 1.10,2013-12-17 09:28:00,
2013-12-17 04:43:00,27.1,26.0,30.11,West,268,0.0,0.0,94,0.00,,,0.00,weatherlink.com 1.10,2013-12-17 09:43:00,
2013-12-17 04:58:00,26.9,25.0,30.12,West,268,0.0,2.0,94,0.00,,,0.00,weatherlink.com 1.10,2013-12-17 09:58:00,
2013-12-17 05:13:00,27.0,26.0,30.12,West,268,0.0,0.0,94,0.00,,,0.00,weatherlink.com 1.10,2013-12-17 10:13:00,
2013-12-17 05:28:00,27.0,26.0,30.13,West,268,0.0,0.0,94,0.00,,,0.00,weatherlink.com 1.10,2013-12-17 10:28:00,
2013-12-17 05:43:00,27.3,26.0,30.13,West,268,0.0,0.0,94,0.00,,,0.00,weatherlink.com 1.10,2013-12-17 10:43:00,
2013-12-17 05:58:00,27.5,26.0,30.13,West,268,0.0,0.0,95,0.00,,,0.00,weatherlink.com 1.10,2013-12-17 10:58:00,
2013-12-17 06:13:00,27.6,26.0,30.13,SW,230,0.0,2.0,94,0.00,,,0.00,weatherlink.com 1.10,2013-12-17 11:13:00,
2013-12-17 06:28:00,27.4,26.0,30.13,SW,230,0.0,0.0,94,0.00,,,0.00,weatherlink.com 1.10,2013-12-17 11:28:00,
2013-12-17 06:43:00,27.6,26.0,30.13,SW,230,0.0,0.0,94,0.00,,,0.00,weatherlink.com 1.10,2013-12-17 11:43:00,
2013-12-17 06:58:00,27.4,26.0,30.12,SW,230,0.0,0.0,94,0.00,,,0.00,weatherlink.com 1.10,2013-12-17 11:58:00,
2013-12-17 07:13:00,27.4,26.0,30.12,SW,230,0.0,0.0,95,0.00,,,0.00,weatherlink.com 1.10,2013-12-17 12:13:00,
2013-12-17 07:28:00,27.4,26.0,30.11,SW,230,0.0,0.0,95,0.00,,,0.00,weatherlink.com 1.10,2013-12-17 12:28:00,
2013-12-17 07:43:00,27.1,26.0,30.13,SW,230,0.0,0.0,94,0.00,,,0.00,weatherlink.com 1.10,2013-12-17 12:43:00,
2013-12-17 07:59:00,27.3,26.0,30.12,SW,230,0.0,0.0,94,0.00,,,0.00,weatherlink.com 1.10,2013-12-17 12:59:00,
2013-12-17 08:13:00,27.8,27.0,30.12,SW,230,0.0,0.0,95,0.00,,,0.00,weatherlink.com 1.10,2013-12-17 13:13:00,
2013-12-17 08:28:00,28.7,28.0,30.12,SW,230,0.0,0.0,95,0.00,,,0.00,weatherlink.com 1.10,2013-12-17 13:28:00,
2013-12-17 08:43:00,29.8,29.0,30.13,SW,230,0.0,0.0,95,0.00,,,0.00,weatherlink.com 1.10,2013-12-17 13:43:00,
2013-12-17 08:58:00,31.0,30.0,30.13,SW,230,0.0,0.0,95,0.00,,,0.00,weatherlink.com 1.10,2013-12-17 13:58:00,
2013-12-17 09:13:00,32.6,31.0,30.14,SW,230,0.0,0.0,95,0.00,,,0.00,weatherlink.com 1.10,2013-12-17 14:13:00,
2013-12-17 09:28:00,33.8,33.0,30.13,SW,230,0.0,1.0,95,0.00,,,0.00,weatherlink.com 1.10,2013-12-17 14:28:00,
2013-12-17 09:43:00,35.0,34.0,30.13,SSE,159,0.0,1.0,94,0.01,,,0.01,weatherlink.com 1.10,2013-12-17 14:43:00,
2013-12-17 09:58:00,36.8,35.0,30.13,SSE,159,2.0,2.0,94,0.01,,,0.01,weatherlink.com 1.10,2013-12-17 14:58:00,
2013-12-17 10:13:00,39.0,37.0,30.12,ESE,119,0.0,3.0,91,0.01,,,0.01,weatherlink.com 1.10,2013-12-17 15:13:00,
2013-12-17 10:28:00,41.4,38.0,30.11,WSW,250,1.0,2.0,87,0.01,,,0.01,weatherlink.com 1.10,2013-12-17 15:28:00,
2013-12-17 10:43:00,43.8,38.0,30.11,SW,228,2.0,4.0,80,0.00,,,0.01,weatherlink.com 1.10,2013-12-17 15:43:00,
2013-12-17 10:58:00,46.1,40.0,30.10,South,170,2.0,5.0,78,0.00,,,0.01,weatherlink.com 1.10,2013-12-17 15:58:00,
2013-12-17 11:13:00,48.8,39.0,30.08,South,169,1.0,6.0,70,0.00,,,0.01,weatherlink.com 1.10,2013-12-17 16:13:00,
2013-12-17 11:29:00,49.8,40.0,30.08,SW,235,1.0,3.0,69,0.00,,,0.01,weatherlink.com 1.10,2013-12-17 16:29:00,
2013-12-17 11:44:00,51.4,39.0,30.06,SW,229,1.0,5.0,64,0.00,,,0.01,weatherlink.com 1.10,2013-12-17 16:44:00,
2013-12-17 11:59:00,52.1,39.0,30.04,South,173,4.0,9.0,61,0.00,,,0.01,weatherlink.com 1.10,2013-12-17 16:59:00,
2013-12-17 12:14:00,53.6,40.0,30.03,WSW,243,3.0,10.0,60,0.00,,,0.01,weatherlink.com 1.10,2013-12-17 17:14:00,
2013-12-17 12:29:00,55.3,40.0,30.02,SSE,165,2.0,7.0,57,0.00,,,0.01,weatherlink.com 1.10,2013-12-17 17:29:00,
2013-12-17 12:44:00,56.8,40.0,30.01,SSW,210,3.0,9.0,54,0.00,,,0.01,weatherlink.com 1.10,2013-12-17 17:44:00,
2013-12-17 12:59:00,57.7,40.0,30.00,SW,219,2.0,6.0,53,0.00,,,0.01,weatherlink.com 1.10,2013-12-17 17:59:00,
2013-12-17 13:14:00,58.1,39.0,29.99,SW,230,3.0,7.0,50,0.00,,,0.01,weatherlink.com 1.10,2013-12-17 18:14:00,
2013-12-17 13:29:00,58.6,40.0,29.98,WSW,246,1.0,5.0,51,0.00,,,0.01,weatherlink.com 1.10,2013-12-17 18:29:00,
2013-12-17 13:44:00,60.2,40.0,29.97,SSE,156,1.0,6.0,47,0.00,,,0.01,weatherlink.com 1.10,2013-12-17 18:44:00,
2013-12-17 13:59:00,60.9,40.0,29.95,South,170,3.0,13.0,46,0.00,,,0.01,weatherlink.com 1.10,2013-12-17 18:59:00,
2013-12-17 14:14:00,61.4,40.0,29.94,SSW,196,5.0,13.0,45,0.00,,,0.01,weatherlink.com 1.10,2013-12-17 19:14:00,
2013-12-17 14:29:00,62.3,39.0,29.93,South,191,5.0,7.0,43,0.00,,,0.01,weatherlink.com 1.10,2013-12-17 19:29:00,
2013-12-17 14:44:00,63.2,40.0,29.93,South,169,0.0,4.0,42,0.00,,,0.01,weatherlink.com 1.10,2013-12-17 19:44:00,
2013-12-17 15:00:00,63.2,38.0,29.93,WSW,258,1.0,12.0,40,0.00,,,0.01,weatherlink.com 1.10,2013-12-17 20:00:00,
2013-12-17 15:14:00,63.0,39.0,29.92,SSE,167,4.0,9.0,42,0.00,,,0.01,weatherlink.com 1.10,2013-12-17 20:14:00,
2013-12-17 15:29:00,62.4,39.0,29.92,South,169,4.0,10.0,43,0.00,,,0.01,weatherlink.com 1.10,2013-12-17 20:29:00,
2013-12-17 15:45:00,61.8,38.0,29.91,South,169,0.0,9.0,42,0.00,,,0.01,weatherlink.com 1.10,2013-12-17 20:45:00,
2013-12-17 16:00:00,61.4,38.0,29.92,SSW,198,3.0,8.0,42,0.00,,,0.01,weatherlink.com 1.10,2013-12-17 21:00:00,
2013-12-17 16:15:00,60.8,38.0,29.92,South,181,3.0,7.0,43,0.00,,,0.01,weatherlink.com 1.10,2013-12-17 21:15:00,
2013-12-17 16:30:00,60.2,37.0,29.91,SSE,167,2.0,6.0,43,0.00,,,0.01,weatherlink.com 1.10,2013-12-17 21:30:00,
2013-12-17 16:45:00,59.3,37.0,29.91,South,174,0.0,7.0,44,0.00,,,0.01,weatherlink.com 1.10,2013-12-17 21:45:00,
2013-12-17 17:00:00,58.5,37.0,29.91,WSW,243,0.0,2.0,45,0.00,,,0.01,weatherlink.com 1.10,2013-12-17 22:00:00,
2013-12-17 17:15:00,57.1,38.0,29.90,WSW,243,1.0,1.0,49,0.00,,,0.01,weatherlink.com 1.10,2013-12-17 22:15:00,
2013-12-17 17:30:00,53.0,38.0,29.91,SE,138,0.0,2.0,58,0.00,,,0.01,weatherlink.com 1.10,2013-12-17 22:30:00,
2013-12-17 17:45:00,54.1,38.0,29.90,SSE,158,3.0,8.0,54,0.00,,,0.01,weatherlink.com 1.10,2013-12-17 22:45:00,
2013-12-17 18:00:00,54.9,37.0,29.89,SSE,167,4.0,8.0,52,0.00,,,0.01,weatherlink.com 1.10,2013-12-17 23:00:00,
2013-12-17 18:15:00,54.8,37.0,29.89,SSE,159,3.0,6.0,52,0.00,,,0.01,weatherlink.com 1.10,2013-12-17 23:15:00,
2013-12-17 18:30:00,53.5,37.0,29.88,SSE,162,1.0,7.0,53,0.00,,,0.01,weatherlink.com 1.10,2013-12-17 23:30:00,
2013-12-17 18:45:00,52.9,37.0,29.87,SSE,160,3.0,6.0,55,0.00,,,0.01,weatherlink.com 1.10,2013-12-17 23:45:00,
2013-12-17 19:00:00,51.7,37.0,29.88,WNW,283,3.0,5.0,58,0.00,,,0.01,weatherlink.com 1.10,2013-12-18 00:00:00,
2013-12-17 19:15:00,53.2,39.0,29.90,North,360,18.0,21.0,59,0.00,,,0.01,weatherlink.com 1.10,2013-12-18 00:15:00,
2013-12-17 19:30:00,50.7,41.0,29.93,North,353,12.0,24.0,70,0.01,,,0.02,weatherlink.com 1.10,2013-12-18 00:30:00,
2013-12-17 19:45:00,47.4,43.0,29.94,NW,326,5.0,16.0,83,0.04,,,0.05,weatherlink.com 1.10,2013-12-18 00:45:00,
2013-12-17 20:00:00,46.0,43.0,29.91,North,10,2.0,11.0,88,0.06,,,0.07,weatherlink.com 1.10,2013-12-18 01:00:00,
2013-12-17 20:15:00,45.3,43.0,29.95,NW,321,4.0,13.0,91,0.06,,,0.07,weatherlink.com 1.10,2013-12-18 01:15:00,
2013-12-17 20:30:00,45.1,43.0,29.98,NW,323,7.0,17.0,91,0.08,,,0.10,weatherlink.com 1.10,2013-12-18 01:30:00,
2013-12-17 20:45:00,44.7,42.0,30.00,NW,305,11.0,16.0,91,0.08,,,0.13,weatherlink.com 1.10,2013-12-18 01:45:00,
2013-12-17 21:00:00,43.6,40.0,30.02,NNW,342,9.0,21.0,88,0.07,,,0.14,weatherlink.com 1.10,2013-12-18 02:00:00,
2013-12-17 21:15:00,42.2,39.0,30.02,WNW,286,6.0,17.0,89,0.08,,,0.15,weatherlink.com 1.10,2013-12-18 02:15:00,
2013-12-17 21:30:00,41.6,39.0,30.02,WSW,255,2.0,5.0,90,0.05,,,0.15,weatherlink.com 1.10,2013-12-18 02:30:00,
2013-12-17 21:45:00,41.3,39.0,30.02,West,275,0.0,2.0,91,0.02,,,0.15,weatherlink.com 1.10,2013-12-18 02:45:00,
2013-12-17 22:00:00,40.8,39.0,30.02,West,275,0.0,1.0,92,0.01,,,0.15,weatherlink.com 1.10,2013-12-18 03:00:00,
2013-12-17 22:15:00,40.2,38.0,30.03,WSW,255,3.0,5.0,92,0.00,,,0.15,weatherlink.com 1.10,2013-12-18 03:15:00,
2013-12-17 22:30:00,40.2,38.0,30.03,WSW,252,0.0,3.0,93,0.00,,,0.15,weatherlink.com 1.10,2013-12-18 03:30:00,
2013-12-17 22:45:00,40.6,38.0,30.04,West,265,2.0,5.0,90,0.00,,,0.15,weatherlink.com 1.10,2013-12-18 03:45:00,
2013-12-17 23:00:00,40.6,38.0,30.05,WSW,253,2.0,4.0,89,0.00,,,0.15,weatherlink.com 1.10,2013-12-18 04:00:00,
2013-12-17 23:15:00,40.5,37.0,30.05,WNW,286,2.0,3.0,88,0.00,,,0.15,weatherlink.com 1.10,2013-12-18 04:15:00,
2013-12-17 23:30:00,39.3,36.0,30.05,WNW,286,1.0,2.0,89,0.00,,,0.15,weatherlink.com 1.10,2013-12-18 04:30:00,
2013-12-17 23:45:00,37.2,35.0,30.05,WNW,297,3.0,4.0,91,0.00,,,0.15,weatherlink.com 1.10,2013-12-18 04:45:00,